createdAt,value
2022-12-22T00:01:24.233Z,11.00
2022-12-22T00:04:33.073Z,9.70
2022-12-22T00:07:42.235Z,11.80
2022-12-22T00:10:51.396Z,12.30
2022-12-22T00:14:00.256Z,11.50
2022-12-22T00:17:08.771Z,11.60
2022-12-22T00:20:18.785Z,9.90
2022-12-22T00:23:27.779Z,9.10
2022-12-22T00:26:36.473Z,10.80
2022-12-22T00:29:45.481Z,11.90
2022-12-22T00:32:54.411Z,13.10
2022-12-22T00:36:03.235Z,10.70
2022-12-22T00:39:12.580Z,11.30
2022-12-22T00:42:21.128Z,10.20
2022-12-22T00:45:30.293Z,10.90
2022-12-22T00:48:39.653Z,10.50
2022-12-22T00:51:48.239Z,12.30
2022-12-22T00:54:57.508Z,12.10
2022-12-22T00:58:06.811Z,8.90
2022-12-22T01:01:15.238Z,9.90
2022-12-22T01:04:24.497Z,12.40
2022-12-22T01:07:33.563Z,12.00
2022-12-22T01:10:42.199Z,11.00
2022-12-22T01:13:50.940Z,10.80
2022-12-22T01:16:59.829Z,9.60
2022-12-22T01:20:00.380Z,7.70
2022-12-22T01:23:09.496Z,10.20
2022-12-22T01:26:18.073Z,8.00
2022-12-22T01:29:26.237Z,9.10
2022-12-22T01:32:34.305Z,9.30
2022-12-22T01:35:43.295Z,7.60
2022-12-22T01:38:52.020Z,7.00
2022-12-22T01:42:00.195Z,7.60
2022-12-22T01:45:09.158Z,7.70
2022-12-22T01:48:17.899Z,8.30
2022-12-22T01:51:26.589Z,6.80
2022-12-22T01:54:35.563Z,8.30
2022-12-22T01:57:43.876Z,10.00
2022-12-22T02:00:52.624Z,9.80
2022-12-22T02:04:01.731Z,12.00
2022-12-22T02:07:09.863Z,16.10
2022-12-22T02:10:18.822Z,14.10
2022-12-22T02:13:27.782Z,15.90
2022-12-22T02:16:36.025Z,10.60
2022-12-22T02:19:44.980Z,11.40
2022-12-22T02:22:53.384Z,11.90
2022-12-22T02:26:02.227Z,17.70
2022-12-22T02:29:10.793Z,12.70
2022-12-22T02:32:19.198Z,16.00
2022-12-22T02:35:27.735Z,10.30
2022-12-22T02:38:37.188Z,13.10
2022-12-22T02:41:45.628Z,11.30
2022-12-22T02:44:54.289Z,9.70
2022-12-22T02:48:03.287Z,11.30
2022-12-22T02:51:12.339Z,11.00
2022-12-22T02:54:20.956Z,10.00
2022-12-22T02:57:29.967Z,9.60
2022-12-22T03:00:38.425Z,8.10
2022-12-22T03:03:47.331Z,8.90
2022-12-22T03:06:55.711Z,10.00
2022-12-22T03:10:04.576Z,9.10
2022-12-22T03:13:13.553Z,9.70
2022-12-22T03:16:21.684Z,12.30
2022-12-22T03:19:30.960Z,10.20
2022-12-22T03:22:39.514Z,10.30
2022-12-22T03:25:48.039Z,10.60
2022-12-22T03:28:56.955Z,13.40
2022-12-22T03:32:05.200Z,9.80
2022-12-22T03:35:13.720Z,13.80
2022-12-22T03:38:22.289Z,10.80
2022-12-22T03:41:30.839Z,11.90
2022-12-22T03:44:39.385Z,13.60
2022-12-22T03:47:48.043Z,11.70
2022-12-22T03:50:57.542Z,13.30
2022-12-22T03:54:06.405Z,13.10
2022-12-22T03:57:15.067Z,11.30
2022-12-22T04:00:24.111Z,15.20
2022-12-22T04:03:32.783Z,15.20
2022-12-22T04:06:41.170Z,15.60
2022-12-22T04:09:49.987Z,14.00
2022-12-22T04:12:58.109Z,15.50
2022-12-22T04:16:06.761Z,13.80
2022-12-22T04:19:15.950Z,14.70
2022-12-22T04:22:23.845Z,16.90
2022-12-22T04:25:32.641Z,20.20
2022-12-22T04:28:41.599Z,18.50
2022-12-22T04:31:49.645Z,13.90
2022-12-22T04:34:58.292Z,13.10
2022-12-22T04:38:07.182Z,12.70
2022-12-22T04:41:15.062Z,12.70
2022-12-22T04:44:23.748Z,15.90
2022-12-22T04:47:32.956Z,14.20
2022-12-22T04:50:40.974Z,12.60
2022-12-22T04:53:49.255Z,13.30
2022-12-22T04:56:57.486Z,11.10
2022-12-22T05:00:06.195Z,13.30
2022-12-22T05:03:14.694Z,12.70
2022-12-22T05:06:23.255Z,12.00
2022-12-22T05:09:32.290Z,13.30
2022-12-22T05:12:41.004Z,12.50
2022-12-22T05:15:49.550Z,12.80
2022-12-22T05:18:58.484Z,10.20
2022-12-22T05:22:06.834Z,9.80
2022-12-22T05:25:15.929Z,12.00
2022-12-22T05:28:24.504Z,13.10
2022-12-22T05:31:32.455Z,10.90
2022-12-22T05:34:41.409Z,11.70
2022-12-22T05:37:50.440Z,13.10
2022-12-22T05:41:04.010Z,10.80
2022-12-22T05:44:03.005Z,12.00
2022-12-22T05:47:11.604Z,12.20
2022-12-22T05:50:20.249Z,12.30
2022-12-22T05:53:28.901Z,12.60
2022-12-22T05:56:37.422Z,12.50
2022-12-22T05:59:45.729Z,11.60
2022-12-22T06:02:54.588Z,11.60
2022-12-22T06:06:03.316Z,12.30
2022-12-22T06:09:11.672Z,12.80
2022-12-22T06:12:20.327Z,11.60
2022-12-22T06:15:28.862Z,12.50
2022-12-22T06:18:37.655Z,11.10
2022-12-22T06:21:46.706Z,14.90
2022-12-22T06:24:55.506Z,14.90
2022-12-22T06:28:03.973Z,14.70
2022-12-22T06:31:12.486Z,14.00
2022-12-22T06:34:21.525Z,14.10
2022-12-22T06:37:30.096Z,16.30
2022-12-22T06:40:39.078Z,12.70
2022-12-22T06:43:48.061Z,15.70
2022-12-22T06:46:56.229Z,15.30
2022-12-22T06:50:05.239Z,14.80
2022-12-22T06:53:14.421Z,14.30
2022-12-22T06:56:22.473Z,16.70
2022-12-22T06:59:31.563Z,18.20
2022-12-22T07:02:40.352Z,15.60
2022-12-22T07:05:49.218Z,14.50
2022-12-22T07:08:57.785Z,14.80
2022-12-22T07:12:06.495Z,18.50
2022-12-22T07:15:15.746Z,19.10
2022-12-22T07:18:24.410Z,16.40
2022-12-22T07:21:33.099Z,19.20
2022-12-22T07:24:41.974Z,18.20
2022-12-22T07:27:50.134Z,16.80
2022-12-22T07:30:59.137Z,19.80
2022-12-22T07:34:08.048Z,23.60
2022-12-22T07:37:16.276Z,20.40
2022-12-22T07:40:25.073Z,21.80
2022-12-22T07:43:33.826Z,28.50
2022-12-22T07:46:42.378Z,22.00
2022-12-22T07:49:51.323Z,24.90
2022-12-22T07:53:00.045Z,27.20
2022-12-22T07:56:08.617Z,27.80
2022-12-22T07:59:17.474Z,26.40
2022-12-22T08:02:26.228Z,29.30
2022-12-22T08:05:34.806Z,25.10
2022-12-22T08:08:43.358Z,25.80
2022-12-22T08:11:52.339Z,29.00
2022-12-22T08:15:00.957Z,29.40
2022-12-22T08:18:09.343Z,31.60
2022-12-22T08:21:17.888Z,31.80
2022-12-22T08:24:26.309Z,31.20
2022-12-22T08:27:34.827Z,31.10
2022-12-22T08:30:43.381Z,30.10
2022-12-22T08:33:51.739Z,29.10
2022-12-22T08:37:00.578Z,28.70
2022-12-22T08:40:09.595Z,25.50
2022-12-22T08:43:17.770Z,29.30
2022-12-22T08:46:26.735Z,27.60
2022-12-22T08:49:35.735Z,26.00
2022-12-22T08:52:43.881Z,26.70
2022-12-22T08:55:53.101Z,26.20
2022-12-22T08:59:01.911Z,26.30
2022-12-22T09:02:10.236Z,24.20
2022-12-22T09:05:19.217Z,28.10
2022-12-22T09:08:27.676Z,24.00
2022-12-22T09:11:36.116Z,25.10
2022-12-22T09:14:44.984Z,28.30
2022-12-22T09:17:53.615Z,28.90
2022-12-22T09:21:02.260Z,28.20
2022-12-22T09:24:11.161Z,24.10
2022-12-22T09:27:19.642Z,30.00
2022-12-22T09:30:28.284Z,25.30
2022-12-22T09:33:36.993Z,28.30
2022-12-22T09:36:45.742Z,30.40
2022-12-22T09:39:54.173Z,28.90
2022-12-22T09:43:02.620Z,27.80
2022-12-22T09:46:11.375Z,26.60
2022-12-22T09:49:19.969Z,33.20
2022-12-22T09:52:28.038Z,30.80
2022-12-22T09:55:36.632Z,29.60
2022-12-22T09:58:45.120Z,39.00
2022-12-22T10:01:54.099Z,30.60
2022-12-22T10:05:02.847Z,32.10
2022-12-22T10:08:10.979Z,36.00
2022-12-22T10:11:20.118Z,36.30
2022-12-22T10:14:28.582Z,30.40
2022-12-22T10:17:36.800Z,33.40
2022-12-22T10:20:45.422Z,31.30
2022-12-22T10:23:53.781Z,37.10
2022-12-22T10:27:02.581Z,38.20
2022-12-22T10:30:11.944Z,31.70
2022-12-22T10:33:20.392Z,31.50
2022-12-22T10:36:28.890Z,38.10
2022-12-22T10:39:38.194Z,35.60
2022-12-22T10:42:46.946Z,34.60
2022-12-22T10:45:55.460Z,38.80
2022-12-22T10:49:04.329Z,37.90
2022-12-22T10:52:13.236Z,34.80
2022-12-22T10:55:21.924Z,45.10
2022-12-22T10:58:30.736Z,36.30
2022-12-22T11:01:40.139Z,35.90
2022-12-22T11:04:48.891Z,42.00
2022-12-22T11:07:57.315Z,35.80
2022-12-22T11:11:06.042Z,43.70
2022-12-22T11:14:14.462Z,39.00
2022-12-22T11:17:23.175Z,36.10
2022-12-22T11:20:32.463Z,37.50
2022-12-22T11:23:40.624Z,41.20
2022-12-22T11:26:49.892Z,37.50
2022-12-22T11:29:58.876Z,37.00
2022-12-22T11:33:06.897Z,37.50
2022-12-22T11:36:15.563Z,30.60
2022-12-22T11:39:24.567Z,21.00
2022-12-22T11:42:32.624Z,26.90
2022-12-22T11:45:43.563Z,32.40
2022-12-22T11:48:41.366Z,27.50
2022-12-22T11:51:50.121Z,31.60
2022-12-22T11:54:58.706Z,32.60
2022-12-22T11:58:07.317Z,27.60
2022-12-22T12:01:22.398Z,27.90
2022-12-22T12:04:22.114Z,23.20
2022-12-22T12:07:30.742Z,25.50
2022-12-22T12:10:39.251Z,25.40
2022-12-22T12:13:47.313Z,21.90
2022-12-22T12:16:55.980Z,20.90
2022-12-22T12:20:04.850Z,20.90
2022-12-22T12:23:13.109Z,23.50
2022-12-22T12:26:22.004Z,22.90
2022-12-22T12:29:30.984Z,22.80
2022-12-22T12:32:39.032Z,26.80
2022-12-22T12:35:47.869Z,28.00
2022-12-22T12:39:11.919Z,28.70
2022-12-22T12:42:02.139Z,30.10
2022-12-22T12:45:11.094Z,33.40
2022-12-22T12:48:19.619Z,36.90
2022-12-22T12:51:27.976Z,36.60
2022-12-22T12:54:36.273Z,42.30
2022-12-22T12:57:44.622Z,42.50
2022-12-22T13:00:58.578Z,42.60
2022-12-22T13:04:05.442Z,40.00
2022-12-22T13:07:02.426Z,41.80
2022-12-22T13:10:10.840Z,43.00
2022-12-22T13:13:19.193Z,44.50
2022-12-22T13:16:28.067Z,43.00
2022-12-22T13:19:36.055Z,46.30
2022-12-22T13:22:45.002Z,49.10
2022-12-22T13:25:54.070Z,45.20
2022-12-22T13:29:02.193Z,44.90
2022-12-22T13:32:10.988Z,41.90
2022-12-22T13:35:38.625Z,37.90
2022-12-22T13:38:25.189Z,37.20
2022-12-22T13:41:34.038Z,41.20
2022-12-22T13:44:42.667Z,34.50
2022-12-22T13:47:51.075Z,37.10
2022-12-22T13:50:59.597Z,34.00
2022-12-22T13:54:10.414Z,30.90
2022-12-22T13:57:19.086Z,34.90
2022-12-22T14:00:27.626Z,33.80
2022-12-22T14:03:58.924Z,32.30
2022-12-22T14:06:41.787Z,33.60
2022-12-22T14:09:50.698Z,34.30
2022-12-22T14:12:59.794Z,35.10
2022-12-22T14:16:07.849Z,37.00
2022-12-22T14:19:16.975Z,39.00
2022-12-22T14:22:25.523Z,38.20
2022-12-22T14:25:34.086Z,37.90
2022-12-22T14:28:42.575Z,37.60
2022-12-22T14:31:51.145Z,37.00
2022-12-22T14:35:00.330Z,39.90
2022-12-22T14:38:08.815Z,38.10
2022-12-22T14:41:17.065Z,45.60
2022-12-22T14:44:25.437Z,44.20
2022-12-22T14:47:33.507Z,46.20
2022-12-22T14:50:41.857Z,48.90
2022-12-22T14:53:50.642Z,50.80
2022-12-22T14:56:58.766Z,47.20
2022-12-22T15:00:07.566Z,40.10
2022-12-22T15:03:16.381Z,47.60
2022-12-22T15:06:24.771Z,47.20
2022-12-22T15:10:13.231Z,46.70
2022-12-22T15:12:38.781Z,46.20
2022-12-22T15:15:47.609Z,48.60
2022-12-22T15:18:56.698Z,55.10
2022-12-22T15:22:04.988Z,46.90
2022-12-22T15:25:14.002Z,53.90
2022-12-22T15:28:22.815Z,55.70
2022-12-22T15:31:31.095Z,57.90
2022-12-22T15:34:40.085Z,60.00
2022-12-22T15:37:48.807Z,65.10
2022-12-22T15:40:57.045Z,66.20
2022-12-22T15:44:06.227Z,70.40
2022-12-22T15:47:15.237Z,64.40
2022-12-22T15:50:23.615Z,65.80
2022-12-22T15:53:32.411Z,56.70
2022-12-22T15:56:41.155Z,43.90
2022-12-22T15:59:50.104Z,53.00
2022-12-22T16:02:59.321Z,48.20
2022-12-22T16:06:07.867Z,45.10
2022-12-22T16:09:16.458Z,41.00
2022-12-22T16:12:25.361Z,41.40
2022-12-22T16:15:33.911Z,42.50
2022-12-22T16:18:42.588Z,46.90
2022-12-22T16:21:51.181Z,40.20
2022-12-22T16:25:00.424Z,36.20
2022-12-22T16:28:08.747Z,44.80
2022-12-22T16:31:19.261Z,45.90
2022-12-22T16:34:28.320Z,40.20
2022-12-22T16:37:36.826Z,45.90
2022-12-22T16:40:45.467Z,49.70
2022-12-22T16:44:32.877Z,50.00
2022-12-22T16:47:41.445Z,49.10
2022-12-22T16:50:50.108Z,47.20
2022-12-22T16:53:59.174Z,44.50
2022-12-22T16:57:07.651Z,49.10
2022-12-22T17:00:18.015Z,42.20
2022-12-22T17:03:16.806Z,51.00
2022-12-22T17:06:25.138Z,47.90
2022-12-22T17:09:34.120Z,43.30
2022-12-22T17:12:43.013Z,43.70
2022-12-22T17:15:51.566Z,41.10
2022-12-22T17:19:00.590Z,45.40
2022-12-22T17:22:09.614Z,38.10
2022-12-22T17:25:18.247Z,41.20
2022-12-22T17:28:27.382Z,42.00
2022-12-22T17:31:36.387Z,37.70
2022-12-22T17:34:45.025Z,38.80
2022-12-22T17:37:53.653Z,38.40
2022-12-22T17:41:02.223Z,34.20
2022-12-22T17:44:11.122Z,43.40
2022-12-22T17:47:21.894Z,35.30
2022-12-22T17:50:23.051Z,31.90
2022-12-22T17:53:35.006Z,39.60
2022-12-22T17:56:36.112Z,46.00
2022-12-22T17:59:45.264Z,49.00
2022-12-22T18:02:54.359Z,43.70
2022-12-22T18:06:02.370Z,45.30
2022-12-22T18:09:11.171Z,54.30
2022-12-22T18:12:20.477Z,48.90
2022-12-22T18:15:28.890Z,45.30
2022-12-22T18:18:38.365Z,49.70
2022-12-22T18:21:47.146Z,45.20
2022-12-22T18:24:56.756Z,38.70
2022-12-22T18:28:06.660Z,36.10
2022-12-22T18:31:15.472Z,31.00
2022-12-22T18:34:24.367Z,42.80
2022-12-22T18:37:32.859Z,36.80
2022-12-22T18:40:41.191Z,37.40
2022-12-22T18:43:50.072Z,32.90
2022-12-22T18:46:58.504Z,35.90
2022-12-22T18:50:06.865Z,34.30
2022-12-22T18:53:15.865Z,34.30
2022-12-22T18:56:24.029Z,36.20
2022-12-22T18:59:32.697Z,53.00
2022-12-22T19:02:41.578Z,39.90
2022-12-22T19:05:49.644Z,44.90
2022-12-22T19:08:58.551Z,48.10
2022-12-22T19:12:07.155Z,49.60
2022-12-22T19:15:15.093Z,53.60
2022-12-22T19:18:27.104Z,52.60
2022-12-22T19:21:25.336Z,67.70
2022-12-22T19:24:33.786Z,54.50
2022-12-22T19:27:42.765Z,59.30
2022-12-22T19:30:51.269Z,49.70
2022-12-22T19:33:59.948Z,59.90
2022-12-22T19:37:09.540Z,60.60
2022-12-22T19:40:18.224Z,52.70
2022-12-22T19:43:26.649Z,50.60
2022-12-22T19:46:34.901Z,56.20
2022-12-22T19:49:44.321Z,61.50
2022-12-22T19:52:52.749Z,61.90
2022-12-22T19:56:01.419Z,70.20
2022-12-22T19:59:09.983Z,57.80
2022-12-22T20:02:18.352Z,70.00
2022-12-22T20:05:27.195Z,73.40
2022-12-22T20:08:35.624Z,83.60
2022-12-22T20:11:43.724Z,80.80
2022-12-22T20:14:52.429Z,76.70
2022-12-22T20:18:01.331Z,76.10
2022-12-22T20:21:10.023Z,67.20
2022-12-22T20:24:19.542Z,65.60
2022-12-22T20:27:28.412Z,60.90
2022-12-22T20:30:36.706Z,57.60
2022-12-22T20:33:45.784Z,52.00
2022-12-22T20:36:54.890Z,50.60
2022-12-22T20:40:02.960Z,56.20
2022-12-22T20:43:11.864Z,59.70
2022-12-22T20:46:19.987Z,53.60
2022-12-22T20:49:28.562Z,49.80
2022-12-22T20:52:37.481Z,55.90
2022-12-22T20:55:46.337Z,77.50
2022-12-22T20:58:55.481Z,62.60
2022-12-22T21:02:05.314Z,58.90
2022-12-22T21:05:13.766Z,71.20
2022-12-22T21:08:22.294Z,73.30
2022-12-22T21:11:31.205Z,68.20
2022-12-22T21:14:39.862Z,73.30
2022-12-22T21:17:52.803Z,61.80
2022-12-22T21:20:52.734Z,61.40
2022-12-22T21:24:01.748Z,66.70
2022-12-22T21:27:10.866Z,80.40
2022-12-22T21:30:18.875Z,99.60
2022-12-22T21:33:27.341Z,87.80
2022-12-22T21:36:35.984Z,77.80
2022-12-22T21:39:44.302Z,77.50
2022-12-22T21:42:53.199Z,74.70
2022-12-22T21:46:01.703Z,68.60
2022-12-22T21:49:10.092Z,54.70
2022-12-22T21:52:18.485Z,55.60
2022-12-22T21:55:27.013Z,48.20
2022-12-22T21:58:35.494Z,53.10
2022-12-22T22:01:43.759Z,56.10
2022-12-22T22:04:55.207Z,56.70
2022-12-22T22:07:53.492Z,64.70
2022-12-22T22:11:01.558Z,68.50
2022-12-22T22:14:10.351Z,78.80
2022-12-22T22:17:19.278Z,72.80
2022-12-22T22:20:27.296Z,95.70
2022-12-22T22:23:35.930Z,108.00
2022-12-22T22:26:44.316Z,109.90
2022-12-22T22:29:52.954Z,94.30
2022-12-22T22:33:01.297Z,86.60
2022-12-22T22:36:09.796Z,78.20
2022-12-22T22:39:17.901Z,85.10
2022-12-22T22:42:26.636Z,83.90
2022-12-22T22:45:35.124Z,73.80
2022-12-22T22:48:43.463Z,72.00
2022-12-22T22:51:52.159Z,65.20
2022-12-22T22:55:00.529Z,69.30
2022-12-22T22:58:08.919Z,64.60
2022-12-22T23:01:16.989Z,65.00
2022-12-22T23:04:26.138Z,70.00
2022-12-22T23:07:35.045Z,72.00
2022-12-22T23:10:43.035Z,66.10
2022-12-22T23:13:51.901Z,64.50
2022-12-22T23:17:00.554Z,55.90
2022-12-22T23:20:08.517Z,62.90
2022-12-22T23:23:17.275Z,55.60
2022-12-22T23:26:25.914Z,68.20
2022-12-22T23:29:33.905Z,62.30
2022-12-22T23:32:42.756Z,56.10
2022-12-22T23:35:51.187Z,64.70
2022-12-22T23:38:59.552Z,55.70
2022-12-22T23:42:08.689Z,62.80
2022-12-22T23:45:17.112Z,59.90
2022-12-22T23:48:25.542Z,67.20
2022-12-22T23:51:34.322Z,60.80
2022-12-22T23:54:42.893Z,66.80
2022-12-22T23:57:51.189Z,59.00
